Time;durP1;ratioP1;P1;durP2;ratioP2;P2;SDS_P1;SDS_P2;PMS_P1;PMS_P2;Temp;Humidity;BMP_temperature;BMP_pressure;BME280_temperature;BME280_humidity;BME280_pressure;Samples;Min_cycle;Max_cycle;Signal;HPM_P1;HPM_P2
2021/06/11 00:06:35;;;;;;;14.20;9.63;;;11.50;99.90;;;;;;21242245;27;20377;-48
2021/06/11 00:16:37;;;;;;;12.20;9.35;;;11.40;99.90;;;;;;21232776;27;20074;-46
2021/06/11 00:26:39;;;;;;;9.45;8.27;;;11.40;99.90;;;;;;21223061;28;20031;-46
2021/06/11 00:36:41;;;;;;;11.25;8.57;;;11.50;99.90;;;;;;21259820;27;20103;-46
2021/06/11 00:46:43;;;;;;;11.57;8.68;;;11.60;99.90;;;;;;21326208;27;20039;-46
2021/06/11 00:56:46;;;;;;;12.00;9.32;;;11.70;99.90;;;;;;21326002;27;20031;-47
2021/06/11 01:06:49;;;;;;;12.60;9.10;;;11.90;99.90;;;;;;21332448;27;20046;-46
2021/06/11 01:16:51;;;;;;;9.00;7.65;;;12.00;99.90;;;;;;21341268;27;20111;-48
2021/06/11 01:26:54;;;;;;;9.10;8.07;;;12.20;99.90;;;;;;21340790;27;20038;-48
2021/06/11 01:37:19;;;;;;;9.73;8.48;;;12.30;99.90;;;;;;21300014;27;20027;-47
2021/06/11 01:47:23;;;;;;;15.93;10.27;;;12.40;99.90;;;;;;21210825;27;20089;-48
2021/06/11 01:57:25;;;;;;;8.13;5.95;;;12.80;99.90;;;;;;21167160;28;20089;-47
2021/06/11 02:07:28;;;;;;;3.10;1.75;;;13.50;99.90;;;;;;21166299;28;20088;-47
2021/06/11 02:17:30;;;;;;;0.90;0.70;;;13.90;99.90;;;;;;21164913;28;20072;-49
2021/06/11 02:27:35;;;;;;;2.45;1.45;;;14.30;99.90;;;;;;21164638;28;20031;-46
2021/06/11 02:37:37;;;;;;;2.70;2.10;;;13.80;99.90;;;;;;21254122;27;20083;-46
2021/06/11 02:48:12;;;;;;;2.72;2.45;;;12.60;99.90;;;;;;21335234;27;20490;-49
2021/06/11 02:58:20;;;;;;;3.40;2.75;;;11.80;99.90;;;;;;21333301;27;20031;-45
2021/06/11 03:08:25;;;;;;;3.15;2.50;;;11.60;99.90;;;;;;21289810;27;20541;-46
2021/06/11 03:18:34;;;;;;;3.17;2.20;;;11.60;99.90;;;;;;21160441;28;20073;-45
2021/06/11 03:28:49;;;;;;;2.67;2.38;;;11.60;99.90;;;;;;21159433;28;20032;-46
2021/06/11 03:38:55;;;;;;;4.22;2.72;;;11.50;99.90;;;;;;21214118;27;20427;-47
2021/06/11 03:48:59;;;;;;;2.83;2.35;;;11.40;99.90;;;;;;21243294;27;20039;-46
2021/06/11 03:59:02;;;;;;;3.50;2.90;;;11.20;99.90;;;;;;21242714;27;20361;-46
2021/06/11 04:09:11;;;;;;;4.70;3.88;;;11.10;99.90;;;;;;21242057;27;20035;-46
2021/06/11 04:19:21;;;;;;;6.47;4.15;;;11.20;99.90;;;;;;21232871;27;20043;-47
2021/06/11 04:29:24;;;;;;;5.43;4.10;;;11.00;99.90;;;;;;21241256;28;20438;-49
2021/06/11 04:39:26;;;;;;;4.90;4.10;;;11.10;99.90;;;;;;21304873;27;20107;-46
2021/06/11 04:49:28;;;;;;;3.72;3.00;;;11.40;99.90;;;;;;21343445;27;20035;-47
2021/06/11 04:59:30;;;;;;;4.22;2.90;;;11.70;99.90;;;;;;21342865;27;20391;-48
2021/06/11 05:09:31;;;;;;;2.67;2.05;;;12.00;99.90;;;;;;21341943;27;20030;-47
2021/06/11 05:19:34;;;;;;;2.40;2.10;;;12.10;99.90;;;;;;21341013;27;20039;-46
2021/06/11 05:29:36;;;;;;;3.72;2.67;;;12.40;99.90;;;;;;21340378;27;20027;-46
2021/06/11 05:39:38;;;;;;;4.03;3.00;;;12.60;99.90;;;;;;21259653;27;20095;-46
2021/06/11 05:49:40;;;;;;;3.03;2.72;;;12.70;99.90;;;;;;21209989;27;20043;-46
2021/06/11 05:59:42;;;;;;;4.05;2.63;;;13.10;99.90;;;;;;21167124;28;20052;-46
2021/06/11 06:09:44;;;;;;;2.80;2.50;;;13.40;99.90;;;;;;21166514;28;20477;-46
2021/06/11 06:19:46;;;;;;;3.58;2.17;;;13.80;99.90;;;;;;21146729;28;20044;-47
2021/06/11 06:29:48;;;;;;;2.33;2.05;;;15.40;99.90;;;;;;21164491;28;20084;-46
2021/06/11 06:39:51;;;;;;;3.63;2.88;;;17.00;99.90;;;;;;21291071;27;20543;-48
2021/06/11 06:49:53;;;;;;;3.00;2.70;;;17.30;99.90;;;;;;21333553;27;20429;-49
2021/06/11 06:59:54;;;;;;;2.92;2.58;;;17.70;99.90;;;;;;21332697;27;20035;-46
2021/06/11 07:09:56;;;;;;;2.75;2.55;;;18.00;99.90;;;;;;21260097;27;20039;-46
2021/06/11 07:19:58;;;;;;;3.10;2.30;;;18.60;99.90;;;;;;21159948;28;20390;-47
2021/06/11 07:30:18;;;;;;;2.33;2.13;;;19.40;99.90;;;;;;21159446;28;20084;-48
2021/06/11 07:40:20;;;;;;;4.47;3.08;;;19.70;99.90;;;;;;21294980;27;20467;-48
2021/06/11 07:50:23;;;;;;;2.40;2.20;;;20.20;99.90;;;;;;21328481;27;20042;-48
2021/06/11 08:00:25;;;;;;;2.53;2.30;;;20.10;99.90;;;;;;21328242;27;20051;-47
2021/06/11 08:10:27;;;;;;;2.20;2.00;;;20.30;99.90;;;;;;21328397;27;20043;-47
2021/06/11 08:20:29;;;;;;;3.58;2.40;;;20.80;99.90;;;;;;21319188;27;20115;-48
2021/06/11 08:30:32;;;;;;;2.10;1.90;;;22.80;99.90;;;;;;21327880;27;20042;-47
2021/06/11 08:40:34;;;;;;;4.28;2.58;;;23.40;92.60;;;;;;21257197;27;20350;-47
2021/06/11 08:50:36;;;;;;;2.70;2.50;;;22.10;97.20;;;;;;21240657;28;20039;-47
2021/06/11 09:00:38;;;;;;;2.17;1.50;;;22.00;98.40;;;;;;21241034;28;20064;-50
2021/06/11 09:10:41;;;;;;;1.80;1.70;;;21.60;91.50;;;;;;21242702;28;20086;-47
2021/06/11 09:20:43;;;;;;;1.80;1.70;;;21.10;91.10;;;;;;21241276;28;20051;-47
2021/06/11 09:30:51;;;;;;;2.38;1.65;;;21.50;87.20;;;;;;21252228;27;20438;-49
2021/06/11 09:40:59;;;;;;;2.45;2.20;;;23.30;89.20;;;;;;21330301;27;20030;-47
2021/06/11 09:51:15;;;;;;;3.55;2.58;;;24.20;93.50;;;;;;21233532;27;20036;-50
2021/06/11 10:01:17;;;;;;;2.70;2.38;;;24.10;93.50;;;;;;21168763;28;20065;-48
2021/06/11 10:11:25;;;;;;;5.30;2.30;;;24.10;94.50;;;;;;21168623;28;20039;-47
2021/06/11 10:21:30;;;;;;;2.88;2.40;;;24.50;92.70;;;;;;21167328;28;20081;-47
2021/06/11 10:31:37;;;;;;;4.28;3.88;;;24.30;93.90;;;;;;21167401;28;20533;-48
2021/06/11 10:42:05;;;;;;;4.70;3.70;;;25.20;93.70;;;;;;21326906;27;20039;-51
2021/06/11 10:52:31;;;;;;;3.97;3.63;;;25.10;92.50;;;;;;21336739;27;20038;-48
2021/06/11 11:03:07;;;;;;;7.10;6.33;;;25.30;93.50;;;;;;21334113;27;20094;-47
2021/06/11 11:13:10;;;;;;;10.95;9.82;;;25.30;93.80;;;;;;21156057;27;20043;-47
2021/06/11 11:23:14;;;;;;;16.88;14.05;;;26.50;94.50;;;;;;21162695;28;20416;-45
2021/06/11 11:33:17;;;;;;;17.40;14.60;;;27.00;91.90;;;;;;21169103;27;20064;-45
2021/06/11 11:43:19;;;;;;;24.95;20.90;;;24.90;92.70;;;;;;21244548;27;20065;-48
2021/06/11 11:53:24;;;;;;;25.52;20.00;;;21.40;97.30;;;;;;21242898;27;20533;-47
2021/06/11 12:03:25;;;;;;;30.88;24.60;;;19.60;99.90;;;;;;21243310;27;20091;-47
2021/06/11 12:13:27;;;;;;;24.65;19.50;;;19.60;99.90;;;;;;21243628;27;20472;-46
2021/06/11 12:23:29;;;;;;;26.48;20.55;;;19.60;99.90;;;;;;21241876;27;20055;-49
2021/06/11 12:33:31;;;;;;;26.25;22.50;;;19.30;99.90;;;;;;21251265;27;20063;-46
2021/06/11 12:54:09;;;;;;;35.10;26.10;;;17.60;99.90;;;;;;21290436;27;20031;-46
2021/06/11 13:04:11;;;;;;;42.10;26.70;;;16.30;99.90;;;;;;21333670;27;20532;-47
2021/06/11 13:14:13;;;;;;;73.18;29.42;;;15.40;99.90;;;;;;21340394;27;20083;-44
2021/06/11 13:24:16;;;;;;;39.38;29.52;;;15.00;99.90;;;;;;21340297;27;20091;-46
2021/06/11 13:34:18;;;;;;;37.75;28.77;;;14.80;99.90;;;;;;21303931;27;20034;-51
2021/06/11 13:44:21;;;;;;;30.52;24.33;;;15.00;99.90;;;;;;21254129;27;20542;-48
2021/06/11 13:54:22;;;;;;;24.65;19.60;;;15.10;99.90;;;;;;21167788;27;20054;-45
2021/06/11 14:04:24;;;;;;;22.30;18.23;;;15.20;99.90;;;;;;21166291;28;20481;-47
2021/06/11 14:14:26;;;;;;;15.55;13.55;;;15.60;99.90;;;;;;21165281;28;20032;-44
2021/06/11 14:24:28;;;;;;;20.10;13.80;;;15.40;99.90;;;;;;21165536;28;20413;-47
2021/06/11 14:34:30;;;;;;;5.55;5.00;;;16.80;99.90;;;;;;21202196;27;20042;-45
2021/06/11 14:44:32;;;;;;;12.88;8.77;;;19.90;99.90;;;;;;21333938;27;20824;-46
2021/06/11 14:54:37;;;;;;;6.60;5.68;;;19.10;99.90;;;;;;21332847;27;20084;-50
2021/06/11 15:04:39;;;;;;;6.57;5.30;;;19.00;99.90;;;;;;21332101;27;20031;-46
2021/06/11 15:14:41;;;;;;;4.40;3.97;;;18.10;99.90;;;;;;21179652;27;20085;-50
2021/06/11 15:24:43;;;;;;;3.40;3.08;;;17.60;99.90;;;;;;21160957;28;20471;-46
2021/06/11 15:34:44;;;;;;;2.85;2.63;;;17.30;99.90;;;;;;21179180;27;20039;-47
2021/06/11 15:44:50;;;;;;;3.30;2.40;;;17.20;99.90;;;;;;21243378;27;20035;-50
2021/06/11 15:54:55;;;;;;;3.78;2.28;;;17.20;99.90;;;;;;21242633;27;20084;-46
2021/06/11 16:04:57;;;;;;;3.97;3.22;;;17.40;99.90;;;;;;21241999;27;20096;-46
2021/06/11 16:14:58;;;;;;;9.40;7.60;;;17.70;99.90;;;;;;21242607;27;20039;-52
2021/06/11 16:25:00;;;;;;;17.17;12.82;;;17.30;99.90;;;;;;21241577;27;20063;-48
2021/06/11 16:35:03;;;;;;;18.40;12.25;;;17.50;99.90;;;;;;21268343;27;20064;-47
2021/06/11 16:45:07;;;;;;;4.78;4.10;;;17.80;99.90;;;;;;21343981;27;20027;-48
2021/06/11 16:55:11;;;;;;;13.52;8.82;;;17.20;99.90;;;;;;21343963;27;20087;-51
2021/06/11 17:05:15;;;;;;;12.23;7.90;;;15.40;99.90;;;;;;21343507;27;20075;-46
2021/06/11 17:15:18;;;;;;;10.02;6.88;;;14.30;99.90;;;;;;21343017;27;20035;-47
2021/06/11 17:25:27;;;;;;;9.20;6.70;;;13.70;99.90;;;;;;21339010;27;20076;-46
2021/06/11 17:35:33;;;;;;;11.27;7.97;;;13.40;99.90;;;;;;21312535;27;20086;-48
2021/06/11 17:45:38;;;;;;;14.48;9.73;;;13.10;99.90;;;;;;21244480;27;20159;-47
2021/06/11 17:55:46;;;;;;;11.85;9.48;;;12.70;99.90;;;;;;21166879;28;20057;-49
2021/06/11 18:06:15;;;;;;;15.55;11.70;;;12.60;99.90;;;;;;21166150;28;20396;-51
2021/06/11 18:16:20;;;;;;;13.88;11.07;;;12.50;99.90;;;;;;21165265;28;20027;-47
2021/06/11 18:26:21;;;;;;;17.63;13.80;;;12.30;99.90;;;;;;21164693;28;20397;-51
2021/06/11 18:36:26;;;;;;;18.95;13.38;;;12.20;99.90;;;;;;21232946;27;20030;-47
2021/06/11 18:46:28;;;;;;;14.95;11.50;;;12.10;99.90;;;;;;21333662;27;20038;-47
2021/06/11 18:56:41;;;;;;;14.77;10.38;;;12.10;99.90;;;;;;21331213;27;20100;-47
2021/06/11 19:07:07;;;;;;;15.80;10.70;;;12.00;99.90;;;;;;21315723;27;20183;-50
2021/06/11 19:17:13;;;;;;;11.32;8.98;;;12.00;99.90;;;;;;21159623;28;20047;-49
2021/06/11 19:27:37;;;;;;;11.20;8.25;;;11.70;99.90;;;;;;21159482;28;20085;-50
2021/06/11 19:37:45;;;;;;;9.65;7.68;;;11.50;99.90;;;;;;21204038;27;20031;-49
2021/06/11 19:48:09;;;;;;;9.40;7.35;;;11.50;99.90;;;;;;21243059;27;20031;-49
2021/06/11 19:58:32;;;;;;;8.70;6.43;;;11.70;99.90;;;;;;21241084;27;20388;-48
2021/06/11 20:08:35;;;;;;;7.35;6.20;;;11.50;99.90;;;;;;21241127;27;20072;-47
2021/06/11 20:18:39;;;;;;;6.90;5.85;;;11.40;99.90;;;;;;21215038;27;20401;-49
2021/06/11 20:28:42;;;;;;;11.48;6.45;;;11.30;99.90;;;;;;21155701;28;20397;-47
2021/06/11 20:38:45;;;;;;;9.57;7.40;;;11.20;99.90;;;;;;21137029;28;20101;-47
2021/06/11 20:48:47;;;;;;;8.90;6.20;;;11.20;99.90;;;;;;21154679;28;20480;-49
2021/06/11 20:58:49;;;;;;;8.05;6.50;;;11.10;99.90;;;;;;21136349;28;20439;-46
2021/06/11 21:08:52;;;;;;;9.90;6.70;;;11.00;99.90;;;;;;21153914;28;20093;-46
2021/06/11 21:18:54;;;;;;;9.88;6.50;;;11.00;99.90;;;;;;21152580;28;20051;-47
2021/06/11 21:28:58;;;;;;;7.13;6.07;;;10.90;99.90;;;;;;21167399;28;20040;-48
2021/06/11 21:39:00;;;;;;;7.68;5.82;;;11.10;99.90;;;;;;21167603;28;20057;-47
2021/06/11 21:49:04;;;;;;;11.18;5.90;;;11.20;99.90;;;;;;21166607;28;20480;-52
2021/06/11 21:59:07;;;;;;;7.13;5.38;;;11.30;99.90;;;;;;21166552;28;20054;-47
2021/06/11 22:09:09;;;;;;;7.85;6.22;;;11.20;99.90;;;;;;21165447;28;20081;-47
2021/06/11 22:19:11;;;;;;;6.90;4.85;;;11.10;99.90;;;;;;21164807;28;20189;-47
2021/06/11 22:29:13;;;;;;;6.18;5.13;;;11.20;99.90;;;;;;21163870;28;20035;-47
2021/06/11 22:39:15;;;;;;;7.82;5.90;;;11.40;99.90;;;;;;21162558;28;20093;-47
2021/06/11 22:49:17;;;;;;;7.25;5.80;;;11.20;99.90;;;;;;21143770;28;20032;-47
2021/06/11 22:59:18;;;;;;;10.15;7.00;;;11.20;99.90;;;;;;21161722;28;20469;-47
2021/06/11 23:09:20;;;;;;;8.98;5.78;;;11.00;99.90;;;;;;21160925;28;20043;-49
2021/06/11 23:19:22;;;;;;;7.15;5.68;;;10.90;99.90;;;;;;21160084;28;20039;-48
2021/06/11 23:29:24;;;;;;;9.43;5.50;;;10.90;99.90;;;;;;21159253;28;20069;-52
2021/06/11 23:39:26;;;;;;;8.40;6.22;;;11.00;99.90;;;;;;21158557;28;20540;-48
2021/06/11 23:49:27;;;;;;;7.65;6.13;;;11.00;99.90;;;;;;21157409;28;20035;-48
2021/06/11 23:59:29;;;;;;;6.20;4.88;;;10.90;99.90;;;;;;21157271;28;20530;-48
